Time;durP1;ratioP1;P1;durP2;ratioP2;P2;SDS_P1;SDS_P2;PMS_P1;PMS_P2;Temp;Humidity;BMP_temperature;BMP_pressure;BME280_temperature;BME280_humidity;BME280_pressure;Samples;Min_cycle;Max_cycle;Signal;HPM_P1;HPM_P2
2022/05/15 00:00:55;;;;;;;38.05;17.45;;;;;;;15.53;59.19;101991.19;4967432;28;20041;-74
2022/05/15 00:03:23;;;;;;;35.50;17.23;;;;;;;15.56;59.31;101986.88;4962090;28;20031;-75
2022/05/15 00:05:56;;;;;;;33.65;15.88;;;;;;;15.52;59.54;101986.78;4952180;28;20376;-75
2022/05/15 00:08:22;;;;;;;37.65;16.75;;;;;;;15.51;59.28;101979.72;4970810;28;20118;-75
2022/05/15 00:10:48;;;;;;;36.00;16.33;;;;;;;15.48;59.41;101977.91;4971585;28;20401;-75
2022/05/15 00:13:14;;;;;;;41.38;16.75;;;;;;;15.42;58.96;101978.66;4962220;28;20031;-75
2022/05/15 00:15:41;;;;;;;36.17;16.00;;;;;;;15.38;59.18;101976.84;4974018;28;20047;-75
2022/05/15 00:18:07;;;;;;;37.60;16.48;;;;;;;15.38;59.83;101978.56;4973396;28;20106;-75
2022/05/15 00:20:34;;;;;;;34.25;16.52;;;;;;;15.35;59.37;101974.16;4974160;28;20106;-75
2022/05/15 00:22:59;;;;;;;38.70;15.48;;;;;;;15.37;59.80;101969.81;4973938;28;20430;-75
2022/05/15 00:25:25;;;;;;;36.30;15.43;;;;;;;15.29;60.09;101974.00;4974763;28;20026;-75
2022/05/15 00:27:50;;;;;;;33.08;15.05;;;;;;;15.29;59.67;101972.28;4973477;28;20034;-75
2022/05/15 00:30:18;;;;;;;35.30;15.75;;;;;;;15.24;59.63;101973.03;4971421;28;20030;-75
2022/05/15 00:32:43;;;;;;;36.92;14.85;;;;;;;15.18;59.47;101965.00;4966261;28;20039;-74
2022/05/15 00:35:09;;;;;;;33.05;15.02;;;;;;;15.15;59.84;101964.94;4974442;28;20077;-74
2022/05/15 00:37:34;;;;;;;34.25;14.63;;;;;;;15.09;59.76;101966.59;4972887;28;20069;-75
2022/05/15 00:39:59;;;;;;;38.72;14.93;;;;;;;15.08;60.01;101967.44;4974474;28;20458;-75
2022/05/15 00:42:25;;;;;;;33.65;14.90;;;;;;;15.06;59.99;101971.78;4973557;28;20019;-75
2022/05/15 00:44:50;;;;;;;35.25;15.02;;;;;;;15.01;59.86;101970.75;4974543;28;20584;-75
2022/05/15 00:47:15;;;;;;;35.72;15.05;;;;;;;15.00;60.07;101968.97;4971705;28;20065;-75
2022/05/15 00:49:41;;;;;;;35.63;14.85;;;;;;;14.93;60.06;101962.72;4943844;28;20035;-75
2022/05/15 00:52:18;;;;;;;37.92;14.88;;;;;;;14.91;60.72;101961.78;4974283;28;20062;-75
2022/05/15 00:54:47;;;;;;;35.58;14.20;;;;;;;14.89;60.21;101966.13;4973806;28;20027;-75
2022/05/15 00:57:18;;;;;;;37.00;14.13;;;;;;;14.89;60.21;101957.38;4974303;28;20042;-75
2022/05/15 01:00:08;;;;;;;31.10;13.95;;;;;;;14.86;60.19;101954.63;4972458;28;20031;-75
2022/05/15 01:02:44;;;;;;;30.90;14.23;;;;;;;14.83;60.32;101957.19;4974006;28;20105;-75
2022/05/15 01:05:11;;;;;;;33.10;14.18;;;;;;;14.75;60.64;101955.28;4969499;28;20031;-75
2022/05/15 01:07:36;;;;;;;36.15;14.63;;;;;;;14.70;60.61;101958.63;4966766;28;20077;-75
2022/05/15 01:10:04;;;;;;;34.10;13.63;;;;;;;14.67;60.59;101964.72;4973302;28;20030;-74
2022/05/15 01:12:31;;;;;;;33.05;13.98;;;;;;;14.68;61.13;101962.97;4973741;28;20051;-75
2022/05/15 01:14:57;;;;;;;27.90;13.25;;;;;;;14.67;60.86;101963.81;4973193;28;20055;-75
2022/05/15 01:17:22;;;;;;;29.58;12.85;;;;;;;14.64;60.49;101961.13;4972035;28;20023;-74
2022/05/15 01:19:47;;;;;;;34.58;13.73;;;;;;;14.62;60.89;101968.06;4973048;28;20494;-75
2022/05/15 01:22:15;;;;;;;25.80;12.30;;;;;;;14.53;60.97;101963.44;4973722;28;20034;-75
2022/05/15 01:24:41;;;;;;;31.02;13.02;;;;;;;14.51;61.31;101965.13;4968398;28;20066;-75
2022/05/15 01:27:09;;;;;;;32.08;13.23;;;;;;;14.48;61.22;101965.06;4953649;28;20072;-75
2022/05/15 01:29:40;;;;;;;34.08;13.00;;;;;;;14.42;61.20;101971.94;4954370;28;20027;-75
2022/05/15 01:32:06;;;;;;;40.22;13.40;;;;;;;14.38;61.03;101966.53;4972418;28;20478;-74
2022/05/15 01:34:31;;;;;;;35.83;12.77;;;;;;;14.36;61.55;101966.50;4956217;28;20102;-75
2022/05/15 01:36:59;;;;;;;34.53;12.60;;;;;;;14.35;61.57;101964.75;4972161;28;20110;-75
2022/05/15 01:39:25;;;;;;;30.38;12.38;;;;;;;14.28;61.56;101968.06;4960904;28;20047;-74
2022/05/15 01:41:50;;;;;;;35.65;12.77;;;;;;;14.26;61.96;101964.50;4965518;28;20041;-75
2022/05/15 01:44:16;;;;;;;33.75;11.77;;;;;;;14.23;61.99;101960.03;4970331;28;20019;-75
2022/05/15 01:46:41;;;;;;;29.67;11.40;;;;;;;14.24;61.98;101963.59;4967118;28;20034;-75
2022/05/15 01:49:07;;;;;;;38.90;13.00;;;;;;;14.20;61.90;101957.34;4970142;28;20736;-75
2022/05/15 01:51:34;;;;;;;32.42;12.50;;;;;;;14.15;62.14;101960.69;4968871;28;20031;-75
2022/05/15 01:54:03;;;;;;;30.90;12.75;;;;;;;14.13;62.27;101959.78;4962501;28;20406;-75
2022/05/15 01:56:29;;;;;;;37.45;13.13;;;;;;;14.14;62.05;101956.31;4965460;28;20031;-75
2022/05/15 01:58:55;;;;;;;35.97;13.85;;;;;;;14.08;61.92;101955.28;4961334;28;20090;-75
2022/05/15 02:01:20;;;;;;;34.53;12.32;;;;;;;14.04;62.30;101958.69;4965142;28;20110;-75
2022/05/15 02:03:45;;;;;;;32.58;12.82;;;;;;;14.07;62.29;101953.50;4951896;28;20027;-75
2022/05/15 02:06:11;;;;;;;31.08;12.05;;;;;;;14.09;62.49;101953.56;4958650;28;20034;-75
2022/05/15 02:08:36;;;;;;;34.08;12.23;;;;;;;14.04;62.86;101950.81;4966493;28;20026;-75
2022/05/15 02:11:03;;;;;;;31.73;12.88;;;;;;;14.00;62.52;101951.56;4960199;28;20102;-75
2022/05/15 02:13:28;;;;;;;34.53;12.20;;;;;;;13.97;62.58;101946.25;4955454;28;20034;-75
2022/05/15 02:15:54;;;;;;;31.25;11.95;;;;;;;13.96;62.89;101944.50;4964448;28;20042;-75
2022/05/15 02:18:19;;;;;;;28.90;11.95;;;;;;;13.93;63.01;101946.13;4963825;28;20059;-75
2022/05/15 02:20:44;;;;;;;29.95;11.50;;;;;;;13.93;63.09;101946.13;4965406;28;20497;-75
2022/05/15 02:23:10;;;;;;;35.60;12.60;;;;;;;13.91;63.27;101943.47;4947486;28;20023;-75
2022/05/15 02:25:35;;;;;;;34.55;12.10;;;;;;;13.88;63.03;101949.50;4967469;28;20026;-75
2022/05/15 02:28:00;;;;;;;34.05;11.60;;;;;;;13.84;63.29;101952.88;4965714;28;20022;-75
2022/05/15 02:30:26;;;;;;;30.80;11.65;;;;;;;13.80;62.91;101952.75;4967253;28;20027;-75
2022/05/15 02:32:51;;;;;;;33.40;12.00;;;;;;;13.78;63.04;101955.34;4960350;28;20086;-75
2022/05/15 02:35:18;;;;;;;26.48;11.80;;;;;;;13.72;63.37;101956.03;4960866;28;20041;-75
2022/05/15 02:37:44;;;;;;;31.08;11.95;;;;;;;13.65;63.00;101954.09;4963062;28;20059;-75
2022/05/15 02:40:12;;;;;;;31.05;11.98;;;;;;;13.68;63.32;101948.94;4962718;28;20481;-75
2022/05/15 02:42:38;;;;;;;29.65;11.52;;;;;;;13.62;63.95;101951.38;4949191;28;20073;-75
2022/05/15 02:45:04;;;;;;;34.13;11.43;;;;;;;13.58;64.00;101944.28;4968455;28;20019;-75
2022/05/15 02:47:29;;;;;;;29.30;11.85;;;;;;;13.60;63.91;101939.09;4956997;28;20081;-75
2022/05/15 02:52:39;;;;;;;31.35;11.40;;;;;;;13.55;63.83;101938.97;4965738;28;20038;-75
2022/05/15 02:55:04;;;;;;;36.45;11.55;;;;;;;13.53;64.08;101940.66;4971109;28;20110;-75
2022/05/15 02:57:30;;;;;;;33.70;11.85;;;;;;;13.49;64.15;101936.19;4971035;28;20030;-75
2022/05/15 02:59:56;;;;;;;35.05;11.93;;;;;;;13.49;64.31;101938.78;4971035;28;20030;-75
2022/05/15 03:02:21;;;;;;;33.08;12.45;;;;;;;13.45;64.45;101927.31;4973134;28;20531;-75
2022/05/15 03:04:47;;;;;;;28.70;12.40;;;;;;;13.45;64.50;101931.69;4970917;28;20077;-75
2022/05/15 03:07:13;;;;;;;31.38;11.93;;;;;;;13.38;64.58;101923.66;4966734;28;20033;-75
2022/05/15 03:09:38;;;;;;;32.33;12.32;;;;;;;13.35;64.54;101920.97;4959874;28;20081;-75
2022/05/15 03:12:04;;;;;;;39.53;12.43;;;;;;;13.34;64.47;101932.25;4958118;28;20483;-75
2022/05/15 03:14:30;;;;;;;36.05;12.07;;;;;;;13.30;64.62;101930.34;4962042;28;20037;-75
2022/05/15 03:16:55;;;;;;;31.00;12.45;;;;;;;13.27;64.58;101929.41;4954830;28;20068;-75
2022/05/15 03:19:21;;;;;;;35.13;12.35;;;;;;;13.18;64.65;101924.78;4967050;28;20031;-75
2022/05/15 03:21:46;;;;;;;36.42;11.90;;;;;;;13.21;65.16;101930.97;4967823;28;20035;-75
2022/05/15 03:24:12;;;;;;;34.72;12.07;;;;;;;13.21;65.29;101924.84;4965822;28;20034;-75
2022/05/15 03:26:44;;;;;;;32.72;12.10;;;;;;;13.15;65.08;101924.66;4957710;28;20039;-75
2022/05/15 03:29:11;;;;;;;35.80;11.85;;;;;;;13.11;65.03;101928.91;4958884;28;20031;-74
2022/05/15 03:31:38;;;;;;;31.23;12.23;;;;;;;13.07;64.91;101932.28;4962321;28;20106;-74
2022/05/15 03:34:05;;;;;;;36.75;11.98;;;;;;;13.02;64.76;101924.28;4959450;28;20034;-75
2022/05/15 03:39:08;;;;;;;29.23;12.30;;;;;;;13.01;64.99;101926.88;5100005;23;20414;-76
2022/05/15 03:41:34;;;;;;;31.10;11.80;;;;;;;12.98;65.20;101924.16;4969460;28;20038;-75
2022/05/15 03:44:00;;;;;;;33.83;12.48;;;;;;;12.94;64.91;101917.91;4972134;28;20487;-75
2022/05/15 03:46:25;;;;;;;34.67;12.23;;;;;;;12.96;65.26;101915.34;4970322;28;20031;-76
2022/05/15 03:48:50;;;;;;;30.98;11.60;;;;;;;12.96;65.43;101924.09;4966097;28;20050;-76
2022/05/15 03:51:16;;;;;;;28.33;11.27;;;;;;;12.99;65.51;101920.66;4974238;28;20046;-75
2022/05/15 03:53:42;;;;;;;28.17;11.15;;;;;;;12.95;65.55;101916.22;4961232;28;20047;-75
2022/05/15 03:56:07;;;;;;;34.38;11.07;;;;;;;12.99;65.60;101920.66;4973083;28;20561;-76
2022/05/15 03:58:35;;;;;;;30.95;11.50;;;;;;;12.93;65.54;101921.38;4961614;28;20031;-75
2022/05/15 04:01:01;;;;;;;33.70;11.57;;;;;;;12.93;65.82;101921.38;4951395;28;20073;-75
2022/05/15 04:03:27;;;;;;;31.38;10.90;;;;;;;12.92;65.78;101924.84;4963098;28;20450;-75
2022/05/15 04:05:52;;;;;;;32.22;11.70;;;;;;;12.90;66.25;101917.78;4964999;28;20028;-75
2022/05/15 04:08:17;;;;;;;33.10;10.55;;;;;;;12.87;65.95;101914.25;4969146;28;20030;-75
2022/05/15 04:10:43;;;;;;;32.80;11.43;;;;;;;12.85;66.38;101917.66;4966224;28;20034;-75
2022/05/15 04:13:08;;;;;;;36.15;11.73;;;;;;;12.81;66.45;101919.25;4965974;28;20023;-75
2022/05/15 04:15:33;;;;;;;38.00;12.02;;;;;;;12.79;66.19;101928.81;4967302;28;20062;-75
2022/05/15 04:17:59;;;;;;;38.20;11.90;;;;;;;12.79;66.24;101930.50;4970842;28;20034;-75
2022/05/15 04:20:27;;;;;;;31.45;11.93;;;;;;;12.80;66.47;101937.53;4967347;28;20026;-75
2022/05/15 04:22:53;;;;;;;33.28;12.55;;;;;;;12.74;67.27;101943.44;4966904;28;20030;-75
2022/05/15 04:25:19;;;;;;;31.30;11.82;;;;;;;12.77;66.89;101938.31;4964139;28;20029;-75
2022/05/15 04:27:44;;;;;;;35.53;11.82;;;;;;;12.80;66.86;101937.53;4964676;28;20118;-75
2022/05/15 04:30:14;;;;;;;35.47;12.63;;;;;;;12.78;67.17;101934.84;4964496;28;20636;-75
2022/05/15 04:32:41;;;;;;;34.03;12.48;;;;;;;12.82;67.06;101931.50;4961083;28;20028;-75
2022/05/15 04:35:08;;;;;;;27.75;12.15;;;;;;;12.77;67.30;101934.81;4969419;28;20034;-75
2022/05/15 04:37:33;;;;;;;30.33;11.98;;;;;;;12.75;67.27;101929.53;4955630;28;20055;-75
2022/05/15 04:39:59;;;;;;;31.70;11.88;;;;;;;12.78;67.51;101926.13;4952807;28;20056;-75
2022/05/15 04:42:24;;;;;;;31.15;12.18;;;;;;;12.78;67.53;101926.13;4950410;28;20031;-75
2022/05/15 04:44:49;;;;;;;33.28;12.50;;;;;;;12.80;67.74;101924.44;4951211;28;20142;-75
2022/05/15 04:47:15;;;;;;;30.52;11.73;;;;;;;12.74;67.83;101927.75;4954561;28;20024;-75
2022/05/15 04:49:40;;;;;;;33.63;12.48;;;;;;;12.74;67.65;101922.53;4947001;28;20509;-75
2022/05/15 04:52:06;;;;;;;28.45;11.95;;;;;;;12.76;68.09;101925.19;4959133;28;20036;-75
2022/05/15 04:54:31;;;;;;;36.53;12.93;;;;;;;12.76;68.20;101923.47;4959335;28;20099;-75
2022/05/15 04:56:56;;;;;;;34.60;12.65;;;;;;;12.78;68.50;101929.63;4955453;28;20027;-75
2022/05/15 04:59:22;;;;;;;33.13;12.63;;;;;;;12.76;68.14;101926.09;4947313;28;20447;-75
2022/05/15 05:01:48;;;;;;;36.88;13.15;;;;;;;12.75;68.47;101923.44;4940462;28;20031;-75
2022/05/15 05:04:13;;;;;;;32.22;14.32;;;;;;;12.78;68.12;101927.00;4937871;28;20110;-75
2022/05/15 05:06:39;;;;;;;35.22;13.27;;;;;;;12.77;68.41;101932.19;4944783;28;20023;-75
2022/05/15 05:09:04;;;;;;;32.75;13.98;;;;;;;12.80;68.41;101932.28;4941522;28;20039;-75
2022/05/15 05:11:29;;;;;;;40.90;14.30;;;;;;;12.85;68.55;101938.56;4952134;28;20491;-75
2022/05/15 05:13:55;;;;;;;39.10;14.38;;;;;;;12.89;68.71;101935.22;4951225;28;20055;-75
2022/05/15 05:16:20;;;;;;;35.65;13.68;;;;;;;12.90;68.92;101936.97;4947656;28;20036;-75
2022/05/15 05:18:46;;;;;;;31.75;13.98;;;;;;;12.98;68.72;101932.00;4937005;28;20024;-75
2022/05/15 05:21:11;;;;;;;38.08;14.40;;;;;;;12.99;69.16;101939.00;4942416;28;20398;-75
2022/05/15 05:23:36;;;;;;;35.95;13.98;;;;;;;13.05;68.95;101932.22;4944628;28;20103;-75
2022/05/15 05:26:03;;;;;;;40.08;14.85;;;;;;;13.09;69.11;101934.94;4956831;28;20023;-75
2022/05/15 05:28:29;;;;;;;41.60;14.57;;;;;;;13.08;69.19;101939.28;4952506;28;20107;-75
2022/05/15 05:30:54;;;;;;;39.45;14.57;;;;;;;13.12;69.78;101937.63;4973864;28;20030;-75
2022/05/15 05:33:22;;;;;;;45.28;14.93;;;;;;;13.14;69.57;101931.63;4952181;28;20454;-75
2022/05/15 05:35:49;;;;;;;37.33;14.40;;;;;;;13.21;68.87;101930.09;4942783;28;20046;-75
2022/05/15 05:38:14;;;;;;;36.83;14.45;;;;;;;13.27;69.55;101932.88;4944332;28;20043;-75
2022/05/15 05:40:39;;;;;;;41.10;15.43;;;;;;;13.32;69.35;101935.63;4949278;28;20031;-75
2022/05/15 05:43:05;;;;;;;36.40;14.63;;;;;;;13.37;69.20;101932.34;4948036;28;20365;-75
2022/05/15 05:45:30;;;;;;;40.05;15.00;;;;;;;13.42;68.87;101934.22;4946466;28;20038;-75
2022/05/15 05:47:56;;;;;;;35.13;15.63;;;;;;;13.46;69.25;101936.09;4955862;28;20042;-75
2022/05/15 05:50:25;;;;;;;44.20;15.95;;;;;;;13.54;68.85;101937.19;4947251;28;20011;-75
2022/05/15 05:52:50;;;;;;;43.53;15.90;;;;;;;13.66;68.29;101932.31;4946512;28;20446;-75
2022/05/15 05:55:18;;;;;;;44.67;16.95;;;;;;;13.90;68.38;101933.81;4950916;28;20035;-75
2022/05/15 05:57:44;;;;;;;49.35;17.60;;;;;;;14.20;68.04;101938.13;4937828;28;20055;-75
2022/05/15 06:00:15;;;;;;;43.90;17.52;;;;;;;14.63;65.88;101936.63;4945908;28;20031;-75
2022/05/15 06:02:41;;;;;;;36.72;16.52;;;;;;;14.93;64.92;101930.31;4955766;28;20028;-75
2022/05/15 06:05:06;;;;;;;39.33;17.90;;;;;;;15.18;63.29;101930.88;4944914;28;20037;-75
2022/05/15 06:07:33;;;;;;;39.97;17.70;;;;;;;15.36;63.39;101939.16;4943431;28;20515;-75
2022/05/15 06:09:59;;;;;;;43.55;18.08;;;;;;;15.55;63.19;101939.53;4932325;29;20110;-75
2022/05/15 06:12:25;;;;;;;41.63;17.95;;;;;;;15.60;62.55;101932.66;4942330;28;20020;-75
2022/05/15 06:14:52;;;;;;;47.72;19.00;;;;;;;15.67;62.12;101931.94;4954462;28;20046;-75
2022/05/15 06:17:27;;;;;;;52.35;20.02;;;;;;;15.69;62.65;101931.97;4934446;28;20026;-75
2022/05/15 06:19:53;;;;;;;54.45;20.50;;;;;;;15.67;62.64;101929.31;4930662;29;20170;-75
2022/05/15 06:22:18;;;;;;;49.25;21.17;;;;;;;15.71;62.25;101930.22;4949258;28;20020;-75
2022/05/15 06:24:44;;;;;;;61.05;23.08;;;;;;;15.70;62.89;101934.63;4948979;28;20037;-75
2022/05/15 06:27:10;;;;;;;55.30;22.63;;;;;;;15.72;63.43;101930.25;4949538;28;20031;-75
2022/05/15 06:29:38;;;;;;;50.10;23.27;;;;;;;15.76;63.38;101926.84;4949385;28;20806;-75
2022/05/15 06:32:03;;;;;;;51.78;22.77;;;;;;;15.78;63.64;101934.75;4951444;28;20046;-75
2022/05/15 06:34:29;;;;;;;57.85;25.10;;;;;;;15.82;63.61;101928.75;4939345;28;20031;-75
2022/05/15 06:36:54;;;;;;;52.38;23.83;;;;;;;15.84;62.85;101931.41;4950488;28;20035;-75
2022/05/15 06:39:19;;;;;;;55.30;25.60;;;;;;;15.88;64.06;101930.59;4948269;28;20538;-75
2022/05/15 06:41:49;;;;;;;61.53;26.73;;;;;;;15.90;63.94;101927.16;4950897;28;20038;-75
2022/05/15 06:44:15;;;;;;;59.90;27.55;;;;;;;15.93;62.89;101924.59;4945903;28;20430;-75
2022/05/15 06:46:40;;;;;;;62.30;28.60;;;;;;;15.95;62.86;101925.47;4944961;28;20486;-75
2022/05/15 06:49:05;;;;;;;62.63;28.05;;;;;;;15.98;63.18;101929.91;4954984;28;20514;-75
2022/05/15 06:51:30;;;;;;;69.45;29.77;;;;;;;16.01;62.40;101934.34;4949641;28;20031;-75
2022/05/15 06:53:56;;;;;;;63.80;30.25;;;;;;;16.04;63.50;101924.75;4955660;28;20113;-75
2022/05/15 06:59:05;;;;;;;69.72;30.60;;;;;;;16.15;64.03;101925.84;4954399;28;20069;-75
2022/05/15 07:01:31;;;;;;;67.53;32.53;;;;;;;16.20;63.12;101931.19;4952342;28;20046;-75
2022/05/15 07:03:57;;;;;;;72.00;31.98;;;;;;;16.22;63.62;101924.22;4958006;28;20097;-75
2022/05/15 07:06:22;;;;;;;68.45;31.70;;;;;;;16.27;62.04;101932.19;4952676;28;20118;-75
2022/05/15 07:08:48;;;;;;;67.70;31.45;;;;;;;16.28;61.33;101921.69;4949415;28;20547;-75
2022/05/15 07:11:14;;;;;;;69.70;32.95;;;;;;;16.33;62.13;101929.66;4954931;28;20405;-75
2022/05/15 07:13:39;;;;;;;76.45;32.92;;;;;;;16.37;62.14;101934.13;4956036;28;20027;-75
2022/05/15 07:16:04;;;;;;;70.68;33.05;;;;;;;16.42;61.70;101937.69;4965905;28;20066;-75
2022/05/15 07:18:30;;;;;;;74.43;33.97;;;;;;;16.47;63.82;101930.78;4965851;28;20033;-75
2022/05/15 07:20:55;;;;;;;76.50;33.90;;;;;;;16.51;62.90;101931.69;4967921;28;20027;-75
2022/05/15 07:23:21;;;;;;;79.45;34.05;;;;;;;16.57;63.12;101933.56;4964171;28;20015;-75
2022/05/15 07:25:49;;;;;;;67.28;33.83;;;;;;;16.59;62.20;101940.63;4956135;28;20019;-75
2022/05/15 07:28:14;;;;;;;68.28;34.17;;;;;;;16.65;62.70;101938.06;4956504;28;20220;-77
2022/05/15 07:30:40;;;;;;;70.72;32.45;;;;;;;16.72;64.03;101935.56;4950109;28;20246;-75
2022/05/15 07:33:06;;;;;;;72.60;34.42;;;;;;;16.81;64.43;101938.31;4956758;28;20031;-75
2022/05/15 07:35:32;;;;;;;74.38;34.90;;;;;;;16.85;62.64;101935.75;4957442;28;20084;-75
2022/05/15 07:37:58;;;;;;;66.93;33.20;;;;;;;16.92;62.82;101928.00;4964892;28;20541;-77
2022/05/15 07:40:23;;;;;;;63.83;31.90;;;;;;;16.96;60.60;101925.44;4955377;28;20030;-74
2022/05/15 07:42:49;;;;;;;70.60;31.15;;;;;;;17.04;61.88;101933.44;4945185;28;20124;-83
2022/05/15 07:45:16;;;;;;;63.03;32.13;;;;;;;17.09;60.98;101929.13;4946046;28;20099;-83
2022/05/15 07:47:42;;;;;;;61.25;30.05;;;;;;;17.16;62.74;101924.81;4942459;28;20118;-83
2022/05/15 07:50:08;;;;;;;60.63;31.83;;;;;;;17.24;62.30;101925.81;4937168;28;20031;-82
2022/05/15 07:52:34;;;;;;;64.07;33.10;;;;;;;17.29;59.46;101916.25;4945485;28;20043;-82
2022/05/15 07:55:00;;;;;;;56.95;30.83;;;;;;;17.37;59.57;101926.88;4948482;28;20031;-82
2022/05/15 07:57:25;;;;;;;62.13;31.23;;;;;;;17.42;60.32;101926.91;4941912;28;20174;-82
2022/05/15 07:59:52;;;;;;;57.58;30.58;;;;;;;17.52;62.27;101924.44;4938051;28;20081;-82
2022/05/15 08:02:18;;;;;;;57.28;30.58;;;;;;;17.63;62.16;101931.59;4947772;28;20023;-80
2022/05/15 08:10:11;;;;;;;50.17;28.33;;;;;;;17.84;59.35;101917.75;4949360;28;20090;-80
2022/05/15 08:12:37;;;;;;;52.83;29.77;;;;;;;17.90;58.39;101913.47;4945465;28;20027;-82
2022/05/15 08:15:05;;;;;;;49.78;29.90;;;;;;;18.02;59.28;101919.75;4949013;28;20038;-81
2022/05/15 08:17:30;;;;;;;54.13;29.90;;;;;;;18.10;57.84;101911.88;4946504;28;20086;-80
2022/05/15 08:25:31;;;;;;;49.80;28.75;;;;;;;18.35;57.70;101894.50;4943759;28;20048;-82
2022/05/15 08:27:56;;;;;;;52.63;28.38;;;;;;;18.39;56.18;101891.94;4945704;28;20035;-81
2022/05/15 08:30:22;;;;;;;42.45;28.17;;;;;;;18.42;56.46;101886.69;4948581;28;20027;-81
2022/05/15 08:32:52;;;;;;;45.30;27.33;;;;;;;18.45;56.84;101893.75;4936227;28;20028;-83
2022/05/15 08:35:18;;;;;;;43.33;27.00;;;;;;;18.54;56.21;101890.28;4941631;28;20031;-82
2022/05/15 08:37:44;;;;;;;44.15;25.60;;;;;;;18.61;57.34;101892.09;4931737;28;20047;-83
2022/05/15 08:40:10;;;;;;;43.58;26.85;;;;;;;18.74;56.52;101887.75;4945421;28;20035;-78
2022/05/15 08:43:03;;;;;;;45.13;27.25;;;;;;;18.83;56.22;101874.63;4926859;28;20066;-75
2022/05/15 08:45:32;;;;;;;37.63;24.30;;;;;;;18.90;56.45;101871.19;4946278;28;20042;-75
2022/05/15 08:48:07;;;;;;;39.50;23.67;;;;;;;18.94;54.00;101874.72;4949729;28;20430;-71
2022/05/15 08:50:42;;;;;;;38.42;22.27;;;;;;;19.02;54.59;101867.72;4952781;28;20042;-71
2022/05/15 08:53:14;;;;;;;30.15;21.33;;;;;;;19.13;53.79;101867.75;4967401;28;20054;-70
2022/05/15 08:55:55;;;;;;;28.52;18.92;;;;;;;19.20;53.47;101864.25;4951022;28;20019;-70
2022/05/15 08:58:50;;;;;;;36.40;20.98;;;;;;;19.28;53.60;101859.03;4959954;28;20111;-70
2022/05/15 09:01:19;;;;;;;33.45;20.42;;;;;;;19.37;50.34;101866.09;4960941;28;20027;-71
2022/05/15 09:03:45;;;;;;;36.88;20.40;;;;;;;19.40;51.43;101864.34;4964567;28;20098;-71
2022/05/15 09:06:28;;;;;;;32.38;19.63;;;;;;;19.43;51.11;101863.47;4965862;28;20098;-71
2022/05/15 09:09:21;;;;;;;31.83;17.75;;;;;;;19.50;49.22;101867.91;4956398;28;20047;-70
2022/05/15 09:12:01;;;;;;;29.52;17.17;;;;;;;19.57;50.05;101859.13;4953264;28;20042;-70
2022/05/15 09:14:29;;;;;;;36.35;19.30;;;;;;;19.66;49.35;101865.31;4949114;29;20031;-71
2022/05/15 09:16:59;;;;;;;36.78;19.52;;;;;;;19.73;48.70;101867.09;4966148;28;20058;-71
2022/05/15 09:19:25;;;;;;;24.98;16.27;;;;;;;19.77;47.71;101861.81;4969927;28;20490;-70
2022/05/15 09:21:59;;;;;;;29.55;17.20;;;;;;;19.88;48.51;101877.72;4954697;28;20058;-70
2022/05/15 09:24:36;;;;;;;27.35;17.00;;;;;;;19.96;48.25;101870.69;4950659;28;20478;-71
2022/05/15 09:27:23;;;;;;;26.33;16.30;;;;;;;20.06;49.99;101855.69;4952956;28;20443;-71
2022/05/15 09:29:57;;;;;;;30.42;18.38;;;;;;;20.09;47.27;101854.81;4950375;28;20166;-70
2022/05/15 09:32:35;;;;;;;30.55;16.35;;;;;;;20.14;48.21;101860.97;4959976;28;20031;-71
2022/05/15 09:35:02;;;;;;;27.50;15.45;;;;;;;20.21;48.21;101854.81;4945611;28;20031;-70
2022/05/15 09:40:22;;;;;;;22.85;14.63;;;;;;;20.32;45.61;101853.03;4948046;28;20050;-70
2022/05/15 09:45:36;;;;;;;26.57;13.73;;;;;;;20.44;43.25;101851.28;4959039;28;20050;-71
2022/05/15 09:48:04;;;;;;;22.70;11.48;;;;;;;20.39;42.90;101842.44;4973435;28;20026;-70
2022/05/15 09:50:48;;;;;;;23.05;10.55;;;;;;;20.44;44.23;101832.75;4965887;28;20110;-72
2022/05/15 09:53:37;;;;;;;23.23;12.63;;;;;;;20.50;45.39;101830.94;4962099;28;20039;-70
2022/05/15 09:56:13;;;;;;;26.63;12.57;;;;;;;20.62;43.94;101835.34;4960634;28;20031;-70
2022/05/15 09:58:51;;;;;;;23.98;12.40;;;;;;;20.66;44.00;101823.88;4957515;28;20454;-70
2022/05/15 10:01:50;;;;;;;23.23;13.02;;;;;;;20.66;43.92;101823.88;4960596;28;20027;-70
2022/05/15 10:04:37;;;;;;;25.83;11.30;;;;;;;20.71;42.93;101828.28;4952395;28;20038;-70
2022/05/15 10:07:06;;;;;;;24.05;12.32;;;;;;;20.76;41.11;101830.03;4957807;28;20031;-71
2022/05/15 10:09:40;;;;;;;24.83;12.50;;;;;;;20.89;42.35;101832.66;4971203;28;20457;-70
2022/05/15 10:12:23;;;;;;;24.80;11.88;;;;;;;20.96;41.98;101832.63;4962859;28;20092;-70
2022/05/15 10:14:55;;;;;;;23.15;11.95;;;;;;;21.07;40.63;101827.25;4954611;28;20086;-71
2022/05/15 10:17:23;;;;;;;20.52;11.40;;;;;;;21.10;40.91;101821.97;4965591;28;20093;-70
2022/05/15 10:20:11;;;;;;;24.33;12.48;;;;;;;21.22;40.51;101828.97;4963579;28;20058;-70
2022/05/15 10:22:50;;;;;;;18.10;12.07;;;;;;;21.27;40.95;101819.22;4956518;28;20031;-70
2022/05/15 10:25:16;;;;;;;24.40;13.25;;;;;;;21.36;40.52;101818.28;4958481;28;20035;-70
2022/05/15 10:27:49;;;;;;;21.98;13.02;;;;;;;21.39;40.45;101812.09;4955528;28;20029;-70
2022/05/15 10:30:20;;;;;;;24.05;12.05;;;;;;;21.49;40.16;101805.84;4967754;28;20031;-70
2022/05/15 10:32:53;;;;;;;25.75;13.23;;;;;;;21.54;38.22;101806.75;4966969;28;20027;-71
2022/05/15 10:35:28;;;;;;;22.95;13.10;;;;;;;21.55;38.84;101813.78;4968727;28;20053;-71
2022/05/15 10:38:02;;;;;;;21.90;12.00;;;;;;;21.68;40.17;101799.56;4965241;28;20051;-71
2022/05/15 10:40:41;;;;;;;22.45;11.95;;;;;;;21.76;39.95;101804.81;4967574;28;20153;-70
2022/05/15 10:43:33;;;;;;;;;;;;;;;21.77;42.34;101803.94;4950902;28;20027;-70
2022/05/15 10:46:09;;;;;;;29.77;13.43;;;;;;;21.82;37.95;101795.91;4956475;28;19914;-71
2022/05/15 10:49:03;;;;;;;26.85;13.07;;;;;;;21.85;40.02;101799.41;4954449;28;20517;-70
2022/05/15 10:51:49;;;;;;;22.05;13.13;;;;;;;21.82;38.13;101793.28;4971342;28;20077;-70
2022/05/15 10:57:42;;;;;;;23.20;12.07;;;;;;;21.86;39.90;101779.97;4968151;28;20042;-71
2022/05/15 11:00:33;;;;;;;23.08;12.63;;;;;;;21.92;38.13;101794.09;4968669;28;20229;-70
2022/05/15 11:03:36;;;;;;;28.05;13.65;;;;;;;22.00;38.86;101785.16;4967218;28;20026;-70
2022/05/15 11:06:13;;;;;;;22.27;12.88;;;;;;;22.04;38.09;101780.69;4970823;28;20106;-70
2022/05/15 11:08:55;;;;;;;22.40;12.35;;;;;;;22.11;39.04;101785.03;4958438;28;20042;-70
2022/05/15 11:11:51;;;;;;;18.25;11.25;;;;;;;22.19;38.29;101790.31;4954998;28;20038;-71
2022/05/15 11:14:33;;;;;;;26.48;11.75;;;;;;;22.26;36.24;101778.72;4959814;28;20030;-70
2022/05/15 11:17:08;;;;;;;23.70;12.02;;;;;;;22.30;36.09;101776.91;4969399;28;20402;-70
2022/05/15 11:19:34;;;;;;;22.05;11.60;;;;;;;22.31;35.62;101779.53;4963210;28;20035;-70
2022/05/15 11:22:24;;;;;;;24.10;11.57;;;;;;;22.31;36.81;101776.03;4969328;28;20062;-70
2022/05/15 11:24:57;;;;;;;23.30;11.23;;;;;;;22.36;36.12;101771.56;4953009;28;20042;-70
2022/05/15 11:27:41;;;;;;;19.40;10.50;;;;;;;22.45;37.61;101759.94;4970514;28;20042;-70
2022/05/15 11:30:20;;;;;;;22.15;10.93;;;;;;;22.55;37.21;101756.28;4965321;28;20069;-70
2022/05/15 11:32:45;;;;;;;20.75;11.05;;;;;;;22.53;35.50;101753.66;4965870;28;20023;-70
2022/05/15 11:35:16;;;;;;;31.23;11.73;;;;;;;22.60;38.27;101741.19;4971286;28;20031;-70
2022/05/15 11:37:51;;;;;;;27.63;12.13;;;;;;;22.69;36.02;101738.41;4966575;28;20057;-70
2022/05/15 11:40:31;;;;;;;18.95;11.48;;;;;;;22.78;37.72;101736.53;4959331;28;20110;-70
2022/05/15 11:42:57;;;;;;;22.85;11.48;;;;;;;22.79;35.06;101744.50;4961388;28;20027;-70
2022/05/15 11:45:30;;;;;;;25.27;11.57;;;;;;;22.80;35.79;101737.41;4971463;28;20037;-70